Time;durP1;ratioP1;P1;durP2;ratioP2;P2;SDS_P1;SDS_P2;PMS_P1;PMS_P2;Temp;Humidity;BMP_temperature;BMP_pressure;BME280_temperature;BME280_humidity;BME280_pressure;Samples;Min_cycle;Max_cycle;Signal;HPM_P1;HPM_P2
2022/04/23 00:00:45;;;;;;;6.22;5.60;;;;;;;;;;5043600;28;20017;-73
2022/04/23 00:03:11;;;;;;;8.35;5.72;;;;;;;;;;5050925;28;20040;-73
2022/04/23 00:05:36;;;;;;;7.53;6.13;;;;;;;;;;5041298;28;20025;-72
2022/04/23 00:08:02;;;;;;;7.10;6.30;;;;;;;;;;5065372;28;20033;-73
2022/04/23 00:10:27;;;;;;;7.53;6.40;;;;;;;;;;5068410;28;20057;-71
2022/04/23 00:12:54;;;;;;;7.50;6.70;;;;;;;;;;5065273;28;20048;-72
2022/04/23 00:15:21;;;;;;;9.25;6.93;;;;;;;;;;5042669;28;20079;-73
2022/04/23 00:17:47;;;;;;;9.30;7.57;;;;;;;;;;5043328;28;20120;-72
2022/04/23 00:20:12;;;;;;;8.98;6.93;;;;;;;;;;5044028;28;20103;-71
2022/04/23 00:22:37;;;;;;;8.55;6.85;;;;;;;;;;5057227;28;20116;-72
2022/04/23 00:25:03;;;;;;;8.32;7.43;;;;;;;;;;5037981;28;20369;-72
2022/04/23 00:27:29;;;;;;;10.20;7.38;;;;;;;;;;5043737;28;20560;-73
2022/04/23 00:29:54;;;;;;;10.38;7.75;;;;;;;;;;5026807;28;20083;-72
2022/04/23 00:32:19;;;;;;;9.50;7.63;;;;;;;;;;5040431;28;20060;-73
2022/04/23 00:34:44;;;;;;;9.60;7.50;;;;;;;;;;5038635;28;20494;-73
2022/04/23 00:37:10;;;;;;;9.32;7.32;;;;;;;;;;5054435;28;20388;-72
2022/04/23 00:39:36;;;;;;;9.23;7.60;;;;;;;;;;5050255;28;20025;-73
2022/04/23 00:42:08;;;;;;;9.90;7.60;;;;;;;;;;5076563;28;20362;-71
2022/04/23 00:44:34;;;;;;;11.18;7.50;;;;;;;;;;5062620;28;20021;-73
2022/04/23 00:46:59;;;;;;;9.63;7.78;;;;;;;;;;5063267;28;20043;-72
2022/04/23 00:49:25;;;;;;;10.00;8.45;;;;;;;;;;5057795;28;20088;-73
2022/04/23 00:51:51;;;;;;;8.90;7.97;;;;;;;;;;5060651;28;20427;-72
2022/04/23 00:54:18;;;;;;;9.25;8.30;;;;;;;;;;5050683;28;20118;-73
2022/04/23 00:56:44;;;;;;;9.50;8.00;;;;;;;;;;5060501;28;20025;-72
2022/04/23 00:59:10;;;;;;;9.52;8.02;;;;;;;;;;5034439;28;20357;-72
2022/04/23 01:01:36;;;;;;;10.55;8.30;;;;;;;;;;5043735;28;20025;-72
2022/04/23 01:04:05;;;;;;;11.48;8.73;;;;;;;;;;5059294;28;20017;-74
2022/04/23 01:06:34;;;;;;;11.05;9.30;;;;;;;;;;5031442;28;20017;-76
2022/04/23 01:09:00;;;;;;;11.43;9.05;;;;;;;;;;5038998;28;20047;-73
2022/04/23 01:11:25;;;;;;;10.20;8.63;;;;;;;;;;5038290;28;20045;-74
2022/04/23 01:13:51;;;;;;;10.95;9.85;;;;;;;;;;5043069;28;20047;-73
2022/04/23 01:16:17;;;;;;;12.15;10.18;;;;;;;;;;5022691;28;20041;-72
2022/04/23 01:18:42;;;;;;;11.88;10.13;;;;;;;;;;5048191;28;20028;-72
2022/04/23 01:21:13;;;;;;;10.68;9.57;;;;;;;;;;5038050;28;20388;-73
2022/04/23 01:23:40;;;;;;;11.48;10.27;;;;;;;;;;5041850;28;20016;-72
2022/04/23 01:26:07;;;;;;;12.88;10.15;;;;;;;;;;5039237;28;20067;-72
2022/04/23 01:28:33;;;;;;;12.75;10.65;;;;;;;;;;5052771;28;20028;-72
2022/04/23 01:30:59;;;;;;;13.95;11.02;;;;;;;;;;5063321;28;20050;-73
2022/04/23 01:33:24;;;;;;;12.95;10.20;;;;;;;;;;5062126;28;20437;-72
2022/04/23 01:35:49;;;;;;;12.32;11.02;;;;;;;;;;5059091;28;20027;-73
2022/04/23 01:38:15;;;;;;;13.02;10.75;;;;;;;;;;5060253;28;20047;-72
2022/04/23 01:40:40;;;;;;;12.15;10.85;;;;;;;;;;5061882;28;20025;-73
2022/04/23 01:43:08;;;;;;;12.38;10.35;;;;;;;;;;5062040;28;20009;-72
2022/04/23 01:45:34;;;;;;;11.52;10.15;;;;;;;;;;5044430;28;20471;-73
2022/04/23 01:47:59;;;;;;;11.90;10.70;;;;;;;;;;5062012;28;20028;-72
2022/04/23 01:50:24;;;;;;;12.40;10.65;;;;;;;;;;5060282;28;20134;-72
2022/04/23 01:52:50;;;;;;;13.13;11.05;;;;;;;;;;5052670;28;20442;-73
2022/04/23 01:55:15;;;;;;;13.02;11.68;;;;;;;;;;5044308;28;20128;-73
2022/04/23 01:57:41;;;;;;;13.30;11.75;;;;;;;;;;5045701;28;20466;-71
2022/04/23 02:00:08;;;;;;;14.65;11.35;;;;;;;;;;5031565;28;20075;-72
2022/04/23 02:02:34;;;;;;;13.02;11.63;;;;;;;;;;5046823;28;20069;-73
2022/04/23 02:04:59;;;;;;;15.25;12.73;;;;;;;;;;5049135;28;20644;-72
2022/04/23 02:07:24;;;;;;;13.07;11.60;;;;;;;;;;5065746;28;20398;-73
2022/04/23 02:09:50;;;;;;;14.18;12.68;;;;;;;;;;5061295;28;20487;-72
2022/04/23 02:12:15;;;;;;;14.00;12.43;;;;;;;;;;5049694;28;20075;-74
2022/04/23 02:14:40;;;;;;;14.02;12.60;;;;;;;;;;5065683;28;20028;-72
2022/04/23 02:17:05;;;;;;;13.98;12.48;;;;;;;;;;5067106;28;20435;-74
2022/04/23 02:19:32;;;;;;;13.73;12.30;;;;;;;;;;5068424;28;20149;-72
2022/04/23 02:21:57;;;;;;;14.38;12.88;;;;;;;;;;5065859;28;20039;-73
2022/04/23 02:24:22;;;;;;;18.15;13.98;;;;;;;;;;5061551;28;20024;-71
2022/04/23 02:26:47;;;;;;;14.55;12.95;;;;;;;;;;5050068;28;20056;-72
2022/04/23 02:29:13;;;;;;;14.55;12.93;;;;;;;;;;5045213;28;20063;-72
2022/04/23 02:31:38;;;;;;;16.55;14.40;;;;;;;;;;5046020;28;20017;-72
2022/04/23 02:34:03;;;;;;;14.98;13.38;;;;;;;;;;5044576;28;20299;-72
2022/04/23 02:36:28;;;;;;;18.35;15.05;;;;;;;;;;5041834;28;20343;-73
2022/04/23 02:38:54;;;;;;;16.20;14.50;;;;;;;;;;5043159;28;20025;-73
2022/04/23 02:41:19;;;;;;;16.63;14.23;;;;;;;;;;5023912;28;20025;-73
2022/04/23 02:43:45;;;;;;;16.45;14.77;;;;;;;;;;5053770;28;20028;-73
2022/04/23 02:46:15;;;;;;;16.73;15.02;;;;;;;;;;5062869;28;20021;-72
2022/04/23 02:48:40;;;;;;;17.58;14.73;;;;;;;;;;5048812;28;20102;-72
2022/04/23 02:51:05;;;;;;;17.20;15.45;;;;;;;;;;5063917;28;20036;-72
2022/04/23 02:53:31;;;;;;;17.90;16.00;;;;;;;;;;5062583;28;20638;-72
2022/04/23 02:55:56;;;;;;;18.52;16.63;;;;;;;;;;5062293;28;20490;-73
2022/04/23 02:58:24;;;;;;;18.05;15.60;;;;;;;;;;5061532;28;20029;-73
2022/04/23 03:00:49;;;;;;;19.65;16.80;;;;;;;;;;5064107;28;20024;-73
2022/04/23 03:03:15;;;;;;;18.50;16.48;;;;;;;;;;5062906;28;20021;-73
2022/04/23 03:05:42;;;;;;;18.90;16.95;;;;;;;;;;5062721;28;20133;-73
2022/04/23 03:08:07;;;;;;;19.55;17.55;;;;;;;;;;5061409;28;20506;-72
2022/04/23 03:10:32;;;;;;;20.10;16.95;;;;;;;;;;5053292;28;20320;-72
2022/04/23 03:12:57;;;;;;;21.83;17.45;;;;;;;;;;5043654;28;20036;-73
2022/04/23 03:15:24;;;;;;;18.88;16.98;;;;;;;;;;5024815;28;20040;-73
2022/04/23 03:17:50;;;;;;;21.15;18.75;;;;;;;;;;5052424;28;20039;-72
2022/04/23 03:20:16;;;;;;;20.13;17.48;;;;;;;;;;5056398;28;20016;-72
2022/04/23 03:22:42;;;;;;;20.08;17.85;;;;;;;;;;5039864;28;20028;-72
2022/04/23 03:25:08;;;;;;;20.63;17.88;;;;;;;;;;5031899;28;20020;-73
2022/04/23 03:27:34;;;;;;;19.63;17.58;;;;;;;;;;5062765;28;20020;-71
2022/04/23 03:29:59;;;;;;;20.60;18.50;;;;;;;;;;5045800;28;20434;-72
2022/04/23 03:32:25;;;;;;;20.60;18.45;;;;;;;;;;5060791;28;20024;-72
2022/04/23 03:34:50;;;;;;;21.00;18.70;;;;;;;;;;5042598;28;20029;-74
2022/04/23 03:37:17;;;;;;;21.58;19.00;;;;;;;;;;5044981;28;20021;-73
2022/04/23 03:39:43;;;;;;;20.95;18.70;;;;;;;;;;5040320;28;20492;-74
2022/04/23 03:42:09;;;;;;;22.48;19.75;;;;;;;;;;5045535;28;20025;-72
2022/04/23 03:44:34;;;;;;;21.67;19.38;;;;;;;;;;5044502;28;20432;-73
2022/04/23 03:47:01;;;;;;;22.58;20.33;;;;;;;;;;5044874;28;20030;-73
2022/04/23 03:49:26;;;;;;;24.95;20.95;;;;;;;;;;5047572;28;20053;-72
2022/04/23 03:51:51;;;;;;;23.38;20.98;;;;;;;;;;5055748;28;20388;-72
2022/04/23 03:54:23;;;;;;;23.63;21.15;;;;;;;;;;5029013;28;20047;-72
2022/04/23 03:56:48;;;;;;;22.63;20.15;;;;;;;;;;5044029;28;20060;-72
2022/04/23 03:59:15;;;;;;;25.38;21.45;;;;;;;;;;5049641;28;20055;-74
2022/04/23 04:01:40;;;;;;;23.38;20.88;;;;;;;;;;5062616;28;20406;-72
2022/04/23 04:04:06;;;;;;;25.05;21.55;;;;;;;;;;5056998;28;20021;-73
2022/04/23 04:06:33;;;;;;;26.33;22.23;;;;;;;;;;5040898;28;20009;-72
2022/04/23 04:08:58;;;;;;;25.23;21.60;;;;;;;;;;5039094;28;20017;-73
2022/04/23 04:11:24;;;;;;;24.65;21.95;;;;;;;;;;5038896;28;20459;-71
2022/04/23 04:13:49;;;;;;;24.90;21.73;;;;;;;;;;5025332;28;20021;-72
2022/04/23 04:16:14;;;;;;;26.35;22.60;;;;;;;;;;5042819;28;20033;-72
2022/04/23 04:18:40;;;;;;;23.85;21.25;;;;;;;;;;5043515;28;20396;-72
2022/04/23 04:21:05;;;;;;;25.60;22.90;;;;;;;;;;5041625;28;20021;-72
2022/04/23 04:23:30;;;;;;;26.30;22.50;;;;;;;;;;5022841;28;20497;-73
2022/04/23 04:25:56;;;;;;;26.02;22.45;;;;;;;;;;5040262;28;20409;-72
2022/04/23 04:28:22;;;;;;;26.52;22.95;;;;;;;;;;5039113;28;20032;-72
2022/04/23 04:33:32;;;;;;;25.45;22.75;;;;;;;;;;5061556;28;20508;-72
2022/04/23 04:35:57;;;;;;;26.70;23.90;;;;;;;;;;5060763;28;20486;-71
2022/04/23 04:38:26;;;;;;;26.65;23.73;;;;;;;;;;5059866;28;20028;-72
2022/04/23 04:40:52;;;;;;;25.63;22.90;;;;;;;;;;5059653;28;20027;-73
2022/04/23 04:43:17;;;;;;;25.98;23.17;;;;;;;;;;5045804;28;20107;-72
2022/04/23 04:45:42;;;;;;;26.70;23.90;;;;;;;;;;5047430;28;20485;-71
2022/04/23 04:48:07;;;;;;;27.85;23.00;;;;;;;;;;5043207;28;20253;-73
2022/04/23 04:50:33;;;;;;;27.13;24.17;;;;;;;;;;5039897;28;20468;-73
2022/04/23 04:52:58;;;;;;;28.33;24.27;;;;;;;;;;5038344;28;20514;-73
2022/04/23 04:55:24;;;;;;;29.50;25.13;;;;;;;;;;5039646;28;20406;-72
2022/04/23 04:57:50;;;;;;;26.83;23.73;;;;;;;;;;5024224;28;20029;-72
2022/04/23 05:00:16;;;;;;;27.83;24.85;;;;;;;;;;5024638;28;20105;-73
2022/04/23 05:02:41;;;;;;;27.45;24.55;;;;;;;;;;5040048;28;20025;-72
2022/04/23 05:05:07;;;;;;;28.73;25.25;;;;;;;;;;5040506;28;20060;-74
2022/04/23 05:07:34;;;;;;;26.98;24.10;;;;;;;;;;5039763;28;20466;-71
2022/04/23 05:10:01;;;;;;;30.98;25.80;;;;;;;;;;5041669;28;20042;-72
2022/04/23 05:12:27;;;;;;;28.52;25.33;;;;;;;;;;5062547;28;20127;-72
2022/04/23 05:14:53;;;;;;;30.40;26.08;;;;;;;;;;5049198;28;20432;-72
2022/04/23 05:17:18;;;;;;;31.42;25.45;;;;;;;;;;5042039;28;20135;-72
2022/04/23 05:19:44;;;;;;;28.90;25.73;;;;;;;;;;5048642;28;20032;-73
2022/04/23 05:22:09;;;;;;;29.75;26.58;;;;;;;;;;5061893;28;20020;-72
2022/04/23 05:24:36;;;;;;;29.10;25.77;;;;;;;;;;5025309;28;20033;-72
2022/04/23 05:27:02;;;;;;;30.08;26.85;;;;;;;;;;5059895;28;20123;-73
2022/04/23 05:29:27;;;;;;;31.65;25.83;;;;;;;;;;5048251;28;20061;-72
2022/04/23 05:31:53;;;;;;;30.45;27.23;;;;;;;;;;5047000;28;20028;-73
2022/04/23 05:34:19;;;;;;;29.52;26.50;;;;;;;;;;5046114;28;20044;-72
2022/04/23 05:36:45;;;;;;;29.50;25.27;;;;;;;;;;5028934;28;20505;-74
2022/04/23 05:39:10;;;;;;;28.42;25.20;;;;;;;;;;5046162;28;20427;-73
2022/04/23 05:41:36;;;;;;;28.77;25.88;;;;;;;;;;5043989;28;20487;-73
2022/04/23 05:44:01;;;;;;;29.38;26.40;;;;;;;;;;5048010;28;20036;-74
2022/04/23 05:46:28;;;;;;;29.00;25.83;;;;;;;;;;5048339;28;20043;-73
2022/04/23 05:48:54;;;;;;;28.80;25.60;;;;;;;;;;5031656;28;20040;-73
2022/04/23 05:51:19;;;;;;;28.92;25.92;;;;;;;;;;5050876;28;20052;-72
2022/04/23 05:53:44;;;;;;;28.98;25.98;;;;;;;;;;5045695;28;20132;-72
2022/04/23 05:56:09;;;;;;;29.30;26.13;;;;;;;;;;5046709;28;20025;-72
2022/04/23 05:58:36;;;;;;;28.73;25.73;;;;;;;;;;5047689;28;20048;-73
2022/04/23 06:01:01;;;;;;;29.67;26.50;;;;;;;;;;5064535;28;20123;-73
2022/04/23 06:03:26;;;;;;;28.38;25.48;;;;;;;;;;5047189;28;20109;-72
2022/04/23 06:05:52;;;;;;;27.33;24.00;;;;;;;;;;5030870;28;20107;-73
2022/04/23 06:08:17;;;;;;;28.20;25.17;;;;;;;;;;5058244;28;20456;-73
2022/04/23 06:10:42;;;;;;;27.15;24.25;;;;;;;;;;5043087;28;20395;-73
2022/04/23 06:13:08;;;;;;;28.75;25.73;;;;;;;;;;5051016;28;20075;-72
2022/04/23 06:15:34;;;;;;;28.50;25.50;;;;;;;;;;5061044;28;20028;-72
2022/04/23 06:17:59;;;;;;;27.33;24.52;;;;;;;;;;5048885;28;20049;-74
2022/04/23 06:20:25;;;;;;;28.38;25.52;;;;;;;;;;5044390;28;20504;-73
2022/04/23 06:22:50;;;;;;;25.95;23.23;;;;;;;;;;5062569;28;20300;-73
2022/04/23 06:25:15;;;;;;;27.88;25.08;;;;;;;;;;5047726;28;20024;-72
2022/04/23 06:27:41;;;;;;;27.30;24.52;;;;;;;;;;5062940;28;20017;-73
2022/04/23 06:30:09;;;;;;;27.17;24.27;;;;;;;;;;5042734;28;20101;-72
2022/04/23 06:32:35;;;;;;;26.42;23.63;;;;;;;;;;5044029;28;20021;-73
2022/04/23 06:35:01;;;;;;;25.60;22.77;;;;;;;;;;5044803;28;20024;-73
2022/04/23 06:37:26;;;;;;;25.00;22.40;;;;;;;;;;5063605;28;20025;-73
2022/04/23 06:39:51;;;;;;;26.35;23.65;;;;;;;;;;5059136;28;20029;-73
2022/04/23 06:42:16;;;;;;;25.83;23.27;;;;;;;;;;5059849;28;20361;-73
2022/04/23 06:44:42;;;;;;;26.00;23.40;;;;;;;;;;5051201;28;20467;-73
2022/04/23 06:47:07;;;;;;;26.40;22.42;;;;;;;;;;5045140;28;20028;-73
2022/04/23 06:49:33;;;;;;;25.48;22.98;;;;;;;;;;5023352;28;20373;-72
2022/04/23 06:51:58;;;;;;;24.33;21.85;;;;;;;;;;5063133;28;20054;-73
2022/04/23 06:54:24;;;;;;;25.50;22.90;;;;;;;;;;5062398;28;20036;-72
2022/04/23 06:56:49;;;;;;;25.75;23.02;;;;;;;;;;5058496;28;20036;-74
2022/04/23 06:59:16;;;;;;;24.60;22.10;;;;;;;;;;5050619;28;20036;-73
2022/04/23 07:01:41;;;;;;;25.00;22.40;;;;;;;;;;5039385;28;20060;-72
2022/04/23 07:04:08;;;;;;;24.85;22.35;;;;;;;;;;5055154;28;20521;-72
2022/04/23 07:06:34;;;;;;;23.45;21.05;;;;;;;;;;5060964;28;20020;-74
2022/04/23 07:08:59;;;;;;;23.63;21.33;;;;;;;;;;5044758;28;20057;-72
2022/04/23 07:11:25;;;;;;;24.38;21.98;;;;;;;;;;5025416;28;20453;-73
2022/04/23 07:13:51;;;;;;;23.98;21.50;;;;;;;;;;5041076;28;20122;-73
2022/04/23 07:16:17;;;;;;;24.52;21.98;;;;;;;;;;5052746;28;20561;-72
2022/04/23 07:18:42;;;;;;;23.83;21.48;;;;;;;;;;5060721;28;20029;-73
2022/04/23 07:21:07;;;;;;;22.90;20.52;;;;;;;;;;5060431;28;20031;-72
2022/04/23 07:26:16;;;;;;;23.70;21.42;;;;;;;;;;5057133;28;20086;-73
2022/04/23 07:28:42;;;;;;;23.55;21.25;;;;;;;;;;5042176;28;20040;-72
2022/04/23 07:31:07;;;;;;;23.27;21.00;;;;;;;;;;5045926;28;20396;-72
2022/04/23 07:39:00;;;;;;;24.33;21.73;;;;;;;;;;5055916;28;20100;-72
2022/04/23 07:41:27;;;;;;;22.92;20.60;;;;;;;;;;5052339;28;20108;-74
2022/04/23 07:43:52;;;;;;;22.50;20.20;;;;;;;;;;5043813;28;20035;-72
2022/04/23 07:46:17;;;;;;;23.00;20.58;;;;;;;;;;5065112;28;20029;-71
2022/04/23 07:48:43;;;;;;;22.25;20.10;;;;;;;;;;5052122;28;20248;-71
2022/04/23 07:51:08;;;;;;;24.40;22.08;;;;;;;;;;5043192;28;20039;-72
2022/04/23 07:53:34;;;;;;;23.48;21.15;;;;;;;;;;5044129;28;20025;-71
2022/04/23 07:55:59;;;;;;;22.85;20.55;;;;;;;;;;5045528;28;20124;-73
2022/04/23 07:58:24;;;;;;;24.00;21.45;;;;;;;;;;5053582;28;20064;-72
2022/04/23 08:00:49;;;;;;;23.02;20.83;;;;;;;;;;5042419;28;20111;-72
2022/04/23 08:03:15;;;;;;;22.58;20.38;;;;;;;;;;5062103;28;20028;-73
2022/04/23 08:05:42;;;;;;;22.38;20.27;;;;;;;;;;5060449;28;20029;-73
2022/04/23 08:08:07;;;;;;;22.73;20.45;;;;;;;;;;5044401;28;20024;-72
2022/04/23 08:10:32;;;;;;;22.35;20.05;;;;;;;;;;5063337;28;20028;-73
2022/04/23 08:12:58;;;;;;;23.27;20.90;;;;;;;;;;5059117;28;20048;-74
2022/04/23 08:15:25;;;;;;;21.33;19.27;;;;;;;;;;5047440;28;20130;-72
2022/04/23 08:17:50;;;;;;;22.08;19.80;;;;;;;;;;5062657;28;20021;-73
2022/04/23 08:20:16;;;;;;;23.05;20.73;;;;;;;;;;5061499;28;20029;-74
2022/04/23 08:22:42;;;;;;;21.52;19.45;;;;;;;;;;5062601;28;20035;-78
2022/04/23 08:25:08;;;;;;;22.45;20.35;;;;;;;;;;5046599;28;20020;-80
2022/04/23 08:27:49;;;;;;;22.98;20.77;;;;;;;;;;5065029;28;20085;-78
2022/04/23 08:32:58;;;;;;;22.50;20.25;;;;;;;;;;5078566;28;20051;-78
2022/04/23 08:35:23;;;;;;;22.17;20.02;;;;;;;;;;5080665;28;20052;-79
2022/04/23 08:37:50;;;;;;;22.50;20.38;;;;;;;;;;5073614;28;20490;-80
2022/04/23 08:40:15;;;;;;;22.25;20.00;;;;;;;;;;5065530;28;20020;-77
2022/04/23 08:42:42;;;;;;;22.13;20.00;;;;;;;;;;5063834;28;20017;-79
2022/04/23 08:45:10;;;;;;;20.98;18.98;;;;;;;;;;5042887;28;20032;-78
2022/04/23 08:47:36;;;;;;;21.85;19.77;;;;;;;;;;5058485;28;20060;-81
2022/04/23 08:50:04;;;;;;;23.05;20.85;;;;;;;;;;5036735;28;20964;-81
2022/04/23 08:52:35;;;;;;;21.95;19.80;;;;;;;;;;5053773;28;20145;-80
2022/04/23 08:55:02;;;;;;;22.27;20.13;;;;;;;;;;5044768;28;20024;-79
2022/04/23 08:57:31;;;;;;;22.13;20.08;;;;;;;;;;5044726;28;20029;-79
2022/04/23 08:59:56;;;;;;;22.65;20.35;;;;;;;;;;5025649;28;20451;-79
2022/04/23 09:02:26;;;;;;;20.75;18.67;;;;;;;;;;5053018;28;20264;-77
2022/04/23 09:04:52;;;;;;;20.95;19.00;;;;;;;;;;5047317;28;20074;-79
2022/04/23 09:07:21;;;;;;;21.90;19.70;;;;;;;;;;5053243;28;20024;-79
2022/04/23 09:09:48;;;;;;;21.40;19.30;;;;;;;;;;5042328;28;20356;-81
2022/04/23 09:12:13;;;;;;;21.58;19.58;;;;;;;;;;5057222;28;20067;-80
2022/04/23 09:14:39;;;;;;;22.25;20.05;;;;;;;;;;5051356;28;20472;-80
2022/04/23 09:25:49;;;;;;;22.05;19.98;;;;;;;;;;5045527;28;20063;-77
2022/04/23 09:28:18;;;;;;;21.50;19.33;;;;;;;;;;5025884;28;20061;-79
2022/04/23 09:30:48;;;;;;;21.55;19.52;;;;;;;;;;5061375;28;20022;-78
2022/04/23 09:33:14;;;;;;;21.85;19.85;;;;;;;;;;5043384;28;20116;-77
2022/04/23 09:35:52;;;;;;;21.42;19.20;;;;;;;;;;5025171;28;20566;-78
2022/04/23 09:38:18;;;;;;;22.00;19.90;;;;;;;;;;5042318;28;20485;-80
2022/04/23 09:40:53;;;;;;;20.90;18.90;;;;;;;;;;5027834;28;20463;-79
2022/04/23 09:43:25;;;;;;;22.08;20.02;;;;;;;;;;5027311;28;20105;-80
2022/04/23 09:45:58;;;;;;;21.70;19.63;;;;;;;;;;5027987;28;20068;-81
2022/04/23 09:48:24;;;;;;;21.27;19.23;;;;;;;;;;5027450;28;20030;-80
2022/04/23 09:50:51;;;;;;;21.27;19.02;;;;;;;;;;5025882;28;20034;-81
2022/04/23 09:53:19;;;;;;;22.17;19.92;;;;;;;;;;5024509;28;20172;-80
2022/04/23 09:55:45;;;;;;;21.10;18.95;;;;;;;;;;5034065;28;20331;-79
2022/04/23 09:58:12;;;;;;;22.00;19.92;;;;;;;;;;5058373;28;20336;-82
2022/04/23 10:00:42;;;;;;;21.33;19.33;;;;;;;;;;5059600;28;20494;-79
2022/04/23 10:03:08;;;;;;;21.25;19.20;;;;;;;;;;5054038;28;20020;-77
2022/04/23 10:05:39;;;;;;;21.52;19.50;;;;;;;;;;5062618;28;20397;-78
2022/04/23 10:08:29;;;;;;;21.80;19.80;;;;;;;;;;5052833;28;20454;-78
2022/04/23 10:10:58;;;;;;;21.83;19.80;;;;;;;;;;5056469;28;20021;-79
2022/04/23 10:13:25;;;;;;;21.67;19.48;;;;;;;;;;5052311;28;20036;-78
2022/04/23 10:15:51;;;;;;;21.45;19.20;;;;;;;;;;5059306;28;20020;-77
2022/04/23 10:18:17;;;;;;;21.20;19.08;;;;;;;;;;5059398;28;20129;-77
2022/04/23 10:20:53;;;;;;;20.42;18.52;;;;;;;;;;5049937;28;20023;-79
2022/04/23 10:23:31;;;;;;;21.20;19.23;;;;;;;;;;5051704;28;20036;-76
2022/04/23 10:26:05;;;;;;;21.92;19.75;;;;;;;;;;5050889;28;20094;-78
2022/04/23 10:28:31;;;;;;;23.85;19.15;;;;;;;;;;5054489;28;20021;-79
2022/04/23 10:31:29;;;;;;;20.60;18.52;;;;;;;;;;5058567;28;20032;-78
2022/04/23 10:33:57;;;;;;;20.73;18.67;;;;;;;;;;5024468;28;20029;-77
2022/04/23 10:36:23;;;;;;;21.20;18.65;;;;;;;;;;5062401;28;20115;-77
2022/04/23 10:38:52;;;;;;;21.35;19.33;;;;;;;;;;5054964;28;20099;-78
2022/04/23 10:41:25;;;;;;;20.90;18.73;;;;;;;;;;5044510;28;20436;-78
2022/04/23 10:43:57;;;;;;;20.83;18.85;;;;;;;;;;5055426;28;20507;-78
2022/04/23 10:46:38;;;;;;;20.98;19.08;;;;;;;;;;5065385;28;20112;-79
2022/04/23 10:49:30;;;;;;;19.75;17.95;;;;;;;;;;5045838;28;20025;-79
2022/04/23 10:51:56;;;;;;;20.25;18.33;;;;;;;;;;5066413;28;20016;-79
2022/04/23 10:54:45;;;;;;;21.73;19.42;;;;;;;;;;5063667;28;20036;-78
2022/04/23 10:57:11;;;;;;;21.38;19.27;;;;;;;;;;5066466;28;20471;-80
2022/04/23 10:59:40;;;;;;;21.45;19.23;;;;;;;;;;5052915;28;20045;-76
2022/04/23 11:02:11;;;;;;;20.80;18.60;;;;;;;;;;5057179;28;20023;-80
2022/04/23 11:13:23;;;;;;;21.65;19.35;;;;;;;;;;5053429;28;20770;-79
2022/04/23 11:16:07;;;;;;;20.52;18.70;;;;;;;;;;5055979;28;20025;-76
2022/04/23 11:18:33;;;;;;;21.67;19.60;;;;;;;;;;5050409;28;20454;-78
2022/04/23 11:21:04;;;;;;;20.20;18.13;;;;;;;;;;5056128;28;20093;-78
2022/04/23 11:23:31;;;;;;;23.83;19.38;;;;;;;;;;5048182;28;20016;-77
2022/04/23 11:26:15;;;;;;;19.77;17.20;;;;;;;;;;5050608;28;20088;-78
2022/04/23 11:28:41;;;;;;;21.23;19.13;;;;;;;;;;5044248;28;20046;-78
2022/04/23 11:31:10;;;;;;;20.35;18.35;;;;;;;;;;5048680;28;20028;-79
2022/04/23 11:33:36;;;;;;;19.13;17.25;;;;;;;;;;5055077;28;20072;-79
2022/04/23 11:36:01;;;;;;;20.38;18.48;;;;;;;;;;5048625;28;20494;-78
2022/04/23 11:38:28;;;;;;;22.88;18.10;;;;;;;;;;5064637;28;20383;-79
2022/04/23 11:40:53;;;;;;;20.42;18.33;;;;;;;;;;5063138;28;20048;-79
2022/04/23 11:43:37;;;;;;;21.13;18.67;;;;;;;;;;5053064;28;20523;-78
2022/04/23 11:46:04;;;;;;;20.58;18.67;;;;;;;;;;5040843;28;20012;-76
2022/04/23 11:48:42;;;;;;;18.67;16.98;;;;;;;;;;5047977;28;20023;-80
2022/04/23 11:51:12;;;;;;;19.60;17.80;;;;;;;;;;5050618;28;20043;-77
2022/04/23 11:54:03;;;;;;;19.95;17.98;;;;;;;;;;5041458;28;20032;-79
2022/04/23 11:56:29;;;;;;;20.75;18.75;;;;;;;;;;5041177;28;20573;-77
2022/04/23 11:59:03;;;;;;;20.58;18.58;;;;;;;;;;5048887;28;20077;-78
2022/04/23 12:01:29;;;;;;;20.88;17.90;;;;;;;;;;5049305;28;20015;-78
2022/04/23 12:03:55;;;;;;;20.75;18.65;;;;;;;;;;5050871;28;20480;-77
2022/04/23 12:06:21;;;;;;;20.75;18.38;;;;;;;;;;5044050;28;20060;-79
2022/04/23 12:08:47;;;;;;;20.88;18.77;;;;;;;;;;5028803;28;20025;-78
2022/04/23 12:11:22;;;;;;;21.45;18.73;;;;;;;;;;5046906;28;20049;-78
2022/04/23 12:13:48;;;;;;;21.30;19.02;;;;;;;;;;5042702;28;20028;-78
2022/04/23 12:16:14;;;;;;;20.83;18.67;;;;;;;;;;5051295;28;20036;-79
2022/04/23 12:18:39;;;;;;;21.80;19.52;;;;;;;;;;5058905;28;20052;-80
2022/04/23 12:21:05;;;;;;;21.95;19.83;;;;;;;;;;5046015;28;20020;-78
2022/04/23 12:23:38;;;;;;;21.10;18.85;;;;;;;;;;5050089;28;20031;-79
2022/04/23 12:26:07;;;;;;;20.95;18.88;;;;;;;;;;5043274;28;20569;-80
2022/04/23 12:42:45;;;;;;;19.73;17.77;;;;;;;;;;5052697;28;20070;-79
2022/04/23 12:45:18;;;;;;;20.85;18.67;;;;;;;;;;5037958;28;20028;-79
2022/04/23 12:47:44;;;;;;;19.17;17.38;;;;;;;;;;5058847;28;20020;-77
2022/04/23 12:50:09;;;;;;;20.13;18.00;;;;;;;;;;5041463;28;20040;-77
2022/04/23 12:52:37;;;;;;;20.67;18.67;;;;;;;;;;5058487;28;20017;-78
2022/04/23 12:55:12;;;;;;;20.25;18.25;;;;;;;;;;5051556;28;20074;-77
2022/04/23 12:57:37;;;;;;;19.95;17.85;;;;;;;;;;5054378;28;20067;-78
2022/04/23 13:00:04;;;;;;;20.70;18.42;;;;;;;;;;5045355;28;20021;-77
2022/04/23 13:02:33;;;;;;;20.33;18.42;;;;;;;;;;5057590;28;20021;-78
2022/04/23 13:04:58;;;;;;;20.13;18.23;;;;;;;;;;5060574;28;20025;-77
2022/04/23 13:10:08;;;;;;;21.15;18.77;;;;;;;;;;5039892;28;20249;-75
2022/04/23 13:12:33;;;;;;;19.77;17.88;;;;;;;;;;5043413;28;20041;-76
2022/04/23 13:14:58;;;;;;;19.75;17.85;;;;;;;;;;5042298;28;20021;-76
2022/04/23 13:17:23;;;;;;;19.70;17.77;;;;;;;;;;5042361;28;20444;-80
2022/04/23 13:19:51;;;;;;;19.90;17.90;;;;;;;;;;5048872;28;20036;-78
2022/04/23 13:22:16;;;;;;;20.88;18.77;;;;;;;;;;5059088;28;20044;-78
2022/04/23 13:24:42;;;;;;;21.33;19.17;;;;;;;;;;5056287;28;20021;-80
2022/04/23 13:27:08;;;;;;;21.77;19.45;;;;;;;;;;5045374;28;20016;-76
2022/04/23 13:29:33;;;;;;;21.42;18.70;;;;;;;;;;5037187;28;20471;-77
2022/04/23 13:31:58;;;;;;;20.67;18.75;;;;;;;;;;5045564;28;20098;-77
2022/04/23 13:34:27;;;;;;;21.60;19.42;;;;;;;;;;5060088;28;20980;-78
2022/04/23 13:36:52;;;;;;;22.08;19.80;;;;;;;;;;5064170;28;20065;-79
2022/04/23 13:39:17;;;;;;;22.58;20.25;;;;;;;;;;5038384;28;20414;-78
2022/04/23 13:41:42;;;;;;;23.10;20.90;;;;;;;;;;5042008;28;20025;-78
2022/04/23 13:44:08;;;;;;;22.80;20.35;;;;;;;;;;5056780;28;20029;-76
2022/04/23 13:46:36;;;;;;;22.08;19.75;;;;;;;;;;5056579;28;20024;-78
2022/04/23 13:49:01;;;;;;;21.67;19.48;;;;;;;;;;5061614;28;20016;-78
2022/04/23 13:51:27;;;;;;;19.80;17.73;;;;;;;;;;5048205;28;20821;-79
2022/04/23 13:53:52;;;;;;;21.85;19.55;;;;;;;;;;5062050;28;20448;-78
2022/04/23 13:56:17;;;;;;;21.88;19.42;;;;;;;;;;5030237;28;20473;-80
2022/04/23 13:58:42;;;;;;;21.73;19.30;;;;;;;;;;5046663;28;20029;-78
2022/04/23 14:01:08;;;;;;;20.77;18.63;;;;;;;;;;5049786;28;20017;-76
2022/04/23 14:11:45;;;;;;;20.45;18.35;;;;;;;;;;5042214;28;20080;-78
2022/04/23 14:14:11;;;;;;;21.30;18.73;;;;;;;;;;5052533;28;20078;-79
2022/04/23 14:16:36;;;;;;;21.42;19.33;;;;;;;;;;5047581;28;20440;-77
2022/04/23 14:19:02;;;;;;;23.23;19.95;;;;;;;;;;5045212;28;20128;-78
2022/04/23 14:21:27;;;;;;;20.73;18.73;;;;;;;;;;5045755;28;20020;-78
2022/04/23 14:23:52;;;;;;;20.38;18.48;;;;;;;;;;5046960;28;20108;-78
2022/04/23 14:26:17;;;;;;;21.85;17.85;;;;;;;;;;5048930;28;20074;-79
2022/04/23 14:28:43;;;;;;;20.40;18.48;;;;;;;;;;5049110;28;20021;-77
2022/04/23 14:31:13;;;;;;;20.40;18.25;;;;;;;;;;5055297;28;20032;-79
2022/04/23 14:33:39;;;;;;;22.38;17.98;;;;;;;;;;5045544;28;20051;-78
2022/04/23 14:36:04;;;;;;;19.55;17.63;;;;;;;;;;5043815;28;20067;-78
2022/04/23 14:38:29;;;;;;;20.45;18.45;;;;;;;;;;5061331;28;20056;-78
2022/04/23 14:40:54;;;;;;;21.98;19.10;;;;;;;;;;5063797;28;20095;-77
2022/04/23 14:43:20;;;;;;;19.42;17.52;;;;;;;;;;5064745;28;20024;-78
2022/04/23 14:45:46;;;;;;;22.67;19.05;;;;;;;;;;5042631;28;20028;-78
2022/04/23 14:48:12;;;;;;;20.42;17.75;;;;;;;;;;5036058;28;20488;-78
2022/04/23 14:53:22;;;;;;;19.40;17.40;;;;;;;;;;5051483;28;20106;-78
2022/04/23 14:55:47;;;;;;;18.73;16.73;;;;;;;;;;5038147;28;20337;-79
2022/04/23 14:58:14;;;;;;;19.15;17.17;;;;;;;;;;5054421;28;20032;-80
2022/04/23 15:00:39;;;;;;;18.55;16.85;;;;;;;;;;5033089;28;20024;-78
2022/04/23 15:03:05;;;;;;;19.73;17.67;;;;;;;;;;5045638;28;20110;-71
2022/04/23 15:05:30;;;;;;;17.77;15.93;;;;;;;;;;5041157;28;20520;-70
2022/04/23 15:07:56;;;;;;;17.70;15.80;;;;;;;;;;5045761;28;20462;-71
2022/04/23 15:10:21;;;;;;;20.10;17.30;;;;;;;;;;5052869;28;20029;-74
2022/04/23 15:12:47;;;;;;;19.02;17.02;;;;;;;;;;5047059;28;20134;-70
2022/04/23 15:15:13;;;;;;;18.95;16.95;;;;;;;;;;5039919;28;20067;-69